<?xml version='1.0' encoding='UTF-8'?><gpx version="1.1" creator="JPX - https://github.com/jenetics/jpx" xmlns="http://www.topografix.com/GPX/1/1"><trk><trkseg><trkpt lat="39.4593366" lon="9.6351792"><ele>114.99999999999999</ele><time>2026-04-30T14:14:24.405Z</time></trkpt><trkpt lat="39.4592898" lon="9.6351227"><ele>115.0</ele><time>2026-04-30T14:14:28.431Z</time></trkpt><trkpt lat="39.4592425" lon="9.6350575"><ele>114.99999999999999</ele><time>2026-04-30T14:14:33.354Z</time></trkpt><trkpt lat="39.4591771" lon="9.6350174"><ele>114.99999999999999</ele><time>2026-04-30T14:14:40.41Z</time></trkpt><trkpt lat="39.4591266" lon="9.6349561"><ele>115.0</ele><time>2026-04-30T14:14:47.331Z</time></trkpt><trkpt lat="39.4590575" lon="9.6349516"><ele>114.99999999999999</ele><time>2026-04-30T14:14:57.364Z</time></trkpt><trkpt lat="39.4589859" lon="9.6349439"><ele>114.99999999999999</ele><time>2026-04-30T14:15:04.386Z</time></trkpt><trkpt lat="39.458944" lon="9.6348705"><ele>114.99999999999999</ele><time>2026-04-30T14:15:11.42Z</time></trkpt><trkpt lat="39.4589074" lon="9.6347985"><ele>115.0</ele><time>2026-04-30T14:15:19.455Z</time></trkpt><trkpt lat="39.458867" lon="9.6348905"><ele>114.99999999999999</ele><time>2026-04-30T14:15:42.452Z</time></trkpt><trkpt lat="39.4588313" lon="9.6349731"><ele>114.99999999999999</ele><time>2026-04-30T14:15:49.421Z</time></trkpt><trkpt lat="39.4587837" lon="9.6350335"><ele>115.0</ele><time>2026-04-30T14:15:55.469Z</time></trkpt><trkpt lat="39.4587119" lon="9.635036"><ele>114.99999999999999</ele><time>2026-04-30T14:16:19.439Z</time></trkpt><trkpt lat="39.4586778" lon="9.635122"><ele>114.99999999999999</ele><time>2026-04-30T14:16:28.458Z</time></trkpt><trkpt lat="39.4586103" lon="9.6351546"><ele>114.7142857142857</ele><time>2026-04-30T14:16:48.45Z</time></trkpt><trkpt lat="39.4585404" lon="9.635157"><ele>114.42857142857142</ele><time>2026-04-30T14:16:52.438Z</time></trkpt><trkpt lat="39.4584765" lon="9.635197"><ele>114.14285714285714</ele><time>2026-04-30T14:17:03.464Z</time></trkpt><trkpt lat="39.4584246" lon="9.635269"><ele>113.85714285714285</ele><time>2026-04-30T14:17:08.457Z</time></trkpt><trkpt lat="39.4583674" lon="9.6353152"><ele>113.57142857142856</ele><time>2026-04-30T14:17:14.448Z</time></trkpt><trkpt lat="39.4583135" lon="9.6353658"><ele>113.28571428571429</ele><time>2026-04-30T14:17:20.458Z</time></trkpt><trkpt lat="39.4582575" lon="9.6354284"><ele>113.0</ele><time>2026-04-30T14:17:26.412Z</time></trkpt><trkpt lat="39.4581972" lon="9.635479"><ele>113.0</ele><time>2026-04-30T14:17:32.448Z</time></trkpt><trkpt lat="39.458137" lon="9.6355108"><ele>113.0</ele><time>2026-04-30T14:17:41.447Z</time></trkpt><trkpt lat="39.4580911" lon="9.6355859"><ele>113.0</ele><time>2026-04-30T14:19:00.406Z</time></trkpt><trkpt lat="39.4580425" lon="9.6356746"><ele>113.0</ele><time>2026-04-30T14:19:26.461Z</time></trkpt><trkpt lat="39.4579781" lon="9.6356699"><ele>113.0</ele><time>2026-04-30T14:20:03.455Z</time></trkpt><trkpt lat="39.4579315" lon="9.635741"><ele>113.0</ele><time>2026-04-30T14:20:20.447Z</time></trkpt><trkpt lat="39.4578868" lon="9.635817"><ele>113.0</ele><time>2026-04-30T14:20:26.489Z</time></trkpt><trkpt lat="39.4578174" lon="9.6358217"><ele>109.0</ele><time>2026-04-30T14:20:43.45Z</time></trkpt><trkpt lat="39.4578054" lon="9.6359105"><ele>105.0</ele><time>2026-04-30T14:20:53.453Z</time></trkpt><trkpt lat="39.4577935" lon="9.636002"><ele>101.0</ele><time>2026-04-30T14:20:59.457Z</time></trkpt><trkpt lat="39.45776" lon="9.6360752"><ele>97.0</ele><time>2026-04-30T14:21:04.459Z</time></trkpt><trkpt lat="39.457706" lon="9.6360326"><ele>93.0</ele><time>2026-04-30T14:23:02.458Z</time></trkpt><trkpt lat="39.4576431" lon="9.6360843"><ele>89.0</ele><time>2026-04-30T14:23:56.466Z</time></trkpt><trkpt lat="39.4575817" lon="9.6361131"><ele>85.0</ele><time>2026-04-30T14:24:29.45Z</time></trkpt><trkpt lat="39.4575498" lon="9.6361884"><ele>85.0</ele><time>2026-04-30T14:24:34.451Z</time></trkpt><trkpt lat="39.4575587" lon="9.6362737"><ele>85.0</ele><time>2026-04-30T14:24:40.467Z</time></trkpt><trkpt lat="39.4575546" lon="9.6363575"><ele>85.0</ele><time>2026-04-30T14:24:45.452Z</time></trkpt><trkpt lat="39.457529" lon="9.6364399"><ele>85.0</ele><time>2026-04-30T14:28:19.469Z</time></trkpt><trkpt lat="39.4575274" lon="9.6365352"><ele>85.0</ele><time>2026-04-30T14:28:27.47Z</time></trkpt><trkpt lat="39.4575339" lon="9.6366238"><ele>85.0</ele><time>2026-04-30T14:28:33.415Z</time></trkpt><trkpt lat="39.4574964" lon="9.6366978"><ele>85.0</ele><time>2026-04-30T14:32:17.419Z</time></trkpt><trkpt lat="39.4574555" lon="9.6367684"><ele>85.0</ele><time>2026-04-30T14:32:23.349Z</time></trkpt><trkpt lat="39.4574783" lon="9.6368462"><ele>85.0</ele><time>2026-04-30T14:32:43.433Z</time></trkpt><trkpt lat="39.4574958" lon="9.636929"><ele>85.0</ele><time>2026-04-30T14:32:49.037Z</time></trkpt><trkpt lat="39.4574753" lon="9.6370192"><ele>85.0</ele><time>2026-04-30T14:33:20.391Z</time></trkpt><trkpt lat="39.4574429" lon="9.6370929"><ele>85.0</ele><time>2026-04-30T14:33:27.404Z</time></trkpt><trkpt lat="39.4574301" lon="9.6371791"><ele>85.0</ele><time>2026-04-30T14:33:33.31Z</time></trkpt><trkpt lat="39.4574105" lon="9.6372632"><ele>85.0</ele><time>2026-04-30T14:33:43.423Z</time></trkpt><trkpt lat="39.4573636" lon="9.6373364"><ele>77.0</ele><time>2026-04-30T14:33:49.422Z</time></trkpt><trkpt lat="39.4573223" lon="9.6374002"><ele>77.0</ele><time>2026-04-30T14:33:56.412Z</time></trkpt><trkpt lat="39.4572757" lon="9.637463"><ele>77.0</ele><time>2026-04-30T14:34:04.43Z</time></trkpt></trkseg></trk></gpx>